Hendricks, Kentucky
Current Conditions -  °F | °C
As of 1:53 AM on Friday 28 Nov 2014 (Local Time) from KJKL Reporting Station
Overcast Overcast  
Wind Chill: 20°   Ceiling: 2700
Heat Index: 28°   Visibility: 10mi
Dew Point: 20°   Wind: 8mph
Humidity: 72%   Direction: 270°W
Pressure: 30.36"   Gusts: NA
Location:  37.7261°N, 83.0786°W
Report Text: KJKL 280653Z AUTO 27007KT 250V310 10SM SCT022 OVC027 M02/M07 A3036 RMK AO2 SLP292 T10221067
Loading
Personal Weather Stations






























Interactive Weather Map New forecast layout! Learn more

10-Day Weather Forecast

Advertisements
Track Severe Weather on mobile